sensor_id;sensor_type;location;lat;lon;timestamp;temperature;humidity
21722;DHT22;11023;48.274;7.794;2022-09-09T00:04:33;17.90;99.90
21722;DHT22;11023;48.274;7.794;2022-09-09T00:06:43;17.80;99.90
21722;DHT22;11023;48.274;7.794;2022-09-09T00:09:16;17.90;99.90
21722;DHT22;11023;48.274;7.794;2022-09-09T00:11:43;17.80;99.90
21722;DHT22;11023;48.274;7.794;2022-09-09T00:16:54;17.90;99.90
21722;DHT22;11023;48.274;7.794;2022-09-09T00:22:21;17.90;99.90
21722;DHT22;11023;48.274;7.794;2022-09-09T00:24:53;17.90;99.90
21722;DHT22;11023;48.274;7.794;2022-09-09T00:29:54;17.90;99.90
21722;DHT22;11023;48.274;7.794;2022-09-09T00:32:21;18.00;99.90
21722;DHT22;11023;48.274;7.794;2022-09-09T00:34:52;18.10;99.90
21722;DHT22;11023;48.274;7.794;2022-09-09T00:37:19;18.20;99.90
21722;DHT22;11023;48.274;7.794;2022-09-09T00:39:47;18.20;99.90
21722;DHT22;11023;48.274;7.794;2022-09-09T00:42:43;18.20;99.90
21722;DHT22;11023;48.274;7.794;2022-09-09T00:45:37;18.30;99.90
21722;DHT22;11023;48.274;7.794;2022-09-09T00:48:10;18.20;99.90
21722;DHT22;11023;48.274;7.794;2022-09-09T00:51:00;18.20;99.90
21722;DHT22;11023;48.274;7.794;2022-09-09T00:56:12;18.20;99.90
21722;DHT22;11023;48.274;7.794;2022-09-09T00:59:06;18.20;99.90
21722;DHT22;11023;48.274;7.794;2022-09-09T01:01:35;18.10;99.90
21722;DHT22;11023;48.274;7.794;2022-09-09T01:04:07;18.20;99.90
21722;DHT22;11023;48.274;7.794;2022-09-09T01:06:36;18.10;99.90
21722;DHT22;11023;48.274;7.794;2022-09-09T01:09:16;18.10;99.90
21722;DHT22;11023;48.274;7.794;2022-09-09T01:14:24;18.00;99.90
21722;DHT22;11023;48.274;7.794;2022-09-09T01:16:59;18.00;99.90
21722;DHT22;11023;48.274;7.794;2022-09-09T01:19:54;17.90;99.90
21722;DHT22;11023;48.274;7.794;2022-09-09T01:28:16;17.80;99.90
21722;DHT22;11023;48.274;7.794;2022-09-09T01:30:44;17.60;99.90
21722;DHT22;11023;48.274;7.794;2022-09-09T01:33:17;17.60;99.90
21722;DHT22;11023;48.274;7.794;2022-09-09T01:36:00;17.50;99.90
21722;DHT22;11023;48.274;7.794;2022-09-09T01:38:29;17.40;99.90
21722;DHT22;11023;48.274;7.794;2022-09-09T01:40:56;17.40;99.90
21722;DHT22;11023;48.274;7.794;2022-09-09T01:43:24;17.30;99.90
21722;DHT22;11023;48.274;7.794;2022-09-09T01:45:53;17.30;99.90
21722;DHT22;11023;48.274;7.794;2022-09-09T01:48:21;17.30;99.90
21722;DHT22;11023;48.274;7.794;2022-09-09T01:50:48;17.30;99.90
21722;DHT22;11023;48.274;7.794;2022-09-09T01:53:15;17.30;99.90
21722;DHT22;11023;48.274;7.794;2022-09-09T01:55:57;17.30;99.90
21722;DHT22;11023;48.274;7.794;2022-09-09T02:03:44;17.30;99.90
21722;DHT22;11023;48.274;7.794;2022-09-09T02:06:33;17.20;99.90
21722;DHT22;11023;48.274;7.794;2022-09-09T02:09:02;17.30;99.90
21722;DHT22;11023;48.274;7.794;2022-09-09T02:11:30;17.30;99.90
21722;DHT22;11023;48.274;7.794;2022-09-09T02:14:19;17.30;99.90
21722;DHT22;11023;48.274;7.794;2022-09-09T02:16:52;17.20;99.90
21722;DHT22;11023;48.274;7.794;2022-09-09T02:19:25;17.20;99.90
21722;DHT22;11023;48.274;7.794;2022-09-09T02:21:55;17.20;99.90
21722;DHT22;11023;48.274;7.794;2022-09-09T02:24:21;17.20;99.90
21722;DHT22;11023;48.274;7.794;2022-09-09T02:26:50;17.10;99.90
21722;DHT22;11023;48.274;7.794;2022-09-09T02:29:33;17.10;99.90
21722;DHT22;11023;48.274;7.794;2022-09-09T02:32:03;17.10;99.90
21722;DHT22;11023;48.274;7.794;2022-09-09T02:34:33;17.10;99.90
21722;DHT22;11023;48.274;7.794;2022-09-09T02:37:01;17.10;99.90
21722;DHT22;11023;48.274;7.794;2022-09-09T02:39:28;17.00;99.90
21722;DHT22;11023;48.274;7.794;2022-09-09T02:41:54;17.00;99.90
21722;DHT22;11023;48.274;7.794;2022-09-09T02:44:20;16.90;99.90
21722;DHT22;11023;48.274;7.794;2022-09-09T02:47:05;16.90;99.90
21722;DHT22;11023;48.274;7.794;2022-09-09T02:49:40;16.90;99.90
21722;DHT22;11023;48.274;7.794;2022-09-09T02:52:14;16.90;99.90
21722;DHT22;11023;48.274;7.794;2022-09-09T02:54:44;17.00;99.90
21722;DHT22;11023;48.274;7.794;2022-09-09T02:57:23;17.00;99.90
21722;DHT22;11023;48.274;7.794;2022-09-09T02:59:50;17.10;99.90
21722;DHT22;11023;48.274;7.794;2022-09-09T03:02:17;17.20;99.90
21722;DHT22;11023;48.274;7.794;2022-09-09T03:04:44;17.20;99.90
21722;DHT22;11023;48.274;7.794;2022-09-09T03:07:16;17.30;99.90
21722;DHT22;11023;48.274;7.794;2022-09-09T03:09:42;17.30;99.90
21722;DHT22;11023;48.274;7.794;2022-09-09T03:12:08;17.30;99.90
21722;DHT22;11023;48.274;7.794;2022-09-09T03:14:35;17.40;99.90
21722;DHT22;11023;48.274;7.794;2022-09-09T03:17:01;17.40;99.90
21722;DHT22;11023;48.274;7.794;2022-09-09T03:19:27;17.40;99.90
21722;DHT22;11023;48.274;7.794;2022-09-09T03:21:53;17.40;99.90
21722;DHT22;11023;48.274;7.794;2022-09-09T03:24:19;17.40;99.90
21722;DHT22;11023;48.274;7.794;2022-09-09T03:26:45;17.40;99.90
21722;DHT22;11023;48.274;7.794;2022-09-09T03:29:11;17.40;99.90
21722;DHT22;11023;48.274;7.794;2022-09-09T03:31:41;17.30;99.90
21722;DHT22;11023;48.274;7.794;2022-09-09T03:34:07;17.30;99.90
21722;DHT22;11023;48.274;7.794;2022-09-09T03:36:33;17.20;99.90
21722;DHT22;11023;48.274;7.794;2022-09-09T03:38:59;17.20;99.90
21722;DHT22;11023;48.274;7.794;2022-09-09T03:41:26;17.10;99.90
21722;DHT22;11023;48.274;7.794;2022-09-09T03:43:52;17.10;99.90
21722;DHT22;11023;48.274;7.794;2022-09-09T03:46:19;17.10;99.90
21722;DHT22;11023;48.274;7.794;2022-09-09T03:48:45;17.10;99.90
21722;DHT22;11023;48.274;7.794;2022-09-09T03:51:11;17.00;99.90
21722;DHT22;11023;48.274;7.794;2022-09-09T03:53:37;17.10;99.90
21722;DHT22;11023;48.274;7.794;2022-09-09T03:56:04;17.10;99.90
21722;DHT22;11023;48.274;7.794;2022-09-09T03:58:38;17.10;99.90
21722;DHT22;11023;48.274;7.794;2022-09-09T04:01:13;17.10;99.90
21722;DHT22;11023;48.274;7.794;2022-09-09T04:03:39;17.10;99.90
21722;DHT22;11023;48.274;7.794;2022-09-09T04:06:07;17.00;99.90
21722;DHT22;11023;48.274;7.794;2022-09-09T04:08:35;16.90;99.90
21722;DHT22;11023;48.274;7.794;2022-09-09T04:11:02;17.00;99.90
21722;DHT22;11023;48.274;7.794;2022-09-09T04:13:30;16.90;99.90
21722;DHT22;11023;48.274;7.794;2022-09-09T04:15:58;16.90;99.90
21722;DHT22;11023;48.274;7.794;2022-09-09T04:18:25;16.80;99.90
21722;DHT22;11023;48.274;7.794;2022-09-09T04:20:52;16.80;99.90
21722;DHT22;11023;48.274;7.794;2022-09-09T04:23:19;16.70;99.90
21722;DHT22;11023;48.274;7.794;2022-09-09T04:25:50;16.70;99.90
21722;DHT22;11023;48.274;7.794;2022-09-09T04:28:18;16.70;99.90
21722;DHT22;11023;48.274;7.794;2022-09-09T04:30:44;16.70;99.90
21722;DHT22;11023;48.274;7.794;2022-09-09T04:33:11;16.70;99.90
21722;DHT22;11023;48.274;7.794;2022-09-09T04:35:37;16.70;99.90
21722;DHT22;11023;48.274;7.794;2022-09-09T04:38:04;16.60;99.90
21722;DHT22;11023;48.274;7.794;2022-09-09T04:40:31;16.60;99.90
21722;DHT22;11023;48.274;7.794;2022-09-09T04:43:01;16.50;99.90
21722;DHT22;11023;48.274;7.794;2022-09-09T04:45:27;16.50;99.90
21722;DHT22;11023;48.274;7.794;2022-09-09T04:47:53;16.50;99.90
21722;DHT22;11023;48.274;7.794;2022-09-09T04:50:19;16.40;99.90
21722;DHT22;11023;48.274;7.794;2022-09-09T04:52:45;16.40;99.90
21722;DHT22;11023;48.274;7.794;2022-09-09T04:55:10;16.50;99.90
21722;DHT22;11023;48.274;7.794;2022-09-09T04:57:38;16.50;99.90
21722;DHT22;11023;48.274;7.794;2022-09-09T05:00:05;16.50;99.90
21722;DHT22;11023;48.274;7.794;2022-09-09T05:02:30;16.50;99.90
21722;DHT22;11023;48.274;7.794;2022-09-09T05:04:58;16.60;99.90
21722;DHT22;11023;48.274;7.794;2022-09-09T05:07:24;16.60;99.90
21722;DHT22;11023;48.274;7.794;2022-09-09T05:09:51;16.70;99.90
21722;DHT22;11023;48.274;7.794;2022-09-09T05:12:17;16.80;99.90
21722;DHT22;11023;48.274;7.794;2022-09-09T05:14:43;16.80;99.90
21722;DHT22;11023;48.274;7.794;2022-09-09T05:17:09;16.80;99.90
21722;DHT22;11023;48.274;7.794;2022-09-09T05:19:36;16.80;99.90
21722;DHT22;11023;48.274;7.794;2022-09-09T05:22:02;16.80;99.90
21722;DHT22;11023;48.274;7.794;2022-09-09T05:24:27;16.80;99.90
21722;DHT22;11023;48.274;7.794;2022-09-09T05:26:53;16.80;99.90
21722;DHT22;11023;48.274;7.794;2022-09-09T05:29:19;16.90;99.90
21722;DHT22;11023;48.274;7.794;2022-09-09T05:31:45;16.90;99.90
21722;DHT22;11023;48.274;7.794;2022-09-09T05:34:12;16.90;99.90
21722;DHT22;11023;48.274;7.794;2022-09-09T05:36:38;17.00;99.90
21722;DHT22;11023;48.274;7.794;2022-09-09T05:39:04;17.00;99.90
21722;DHT22;11023;48.274;7.794;2022-09-09T05:41:29;17.10;99.90
21722;DHT22;11023;48.274;7.794;2022-09-09T05:43:57;17.10;99.90
21722;DHT22;11023;48.274;7.794;2022-09-09T05:46:24;17.10;99.90
21722;DHT22;11023;48.274;7.794;2022-09-09T05:48:51;17.10;99.90
21722;DHT22;11023;48.274;7.794;2022-09-09T05:51:25;17.20;99.90
21722;DHT22;11023;48.274;7.794;2022-09-09T05:53:52;17.20;99.90
21722;DHT22;11023;48.274;7.794;2022-09-09T05:56:19;17.20;99.90
21722;DHT22;11023;48.274;7.794;2022-09-09T05:58:45;17.30;99.90
21722;DHT22;11023;48.274;7.794;2022-09-09T06:03:48;17.40;99.90
21722;DHT22;11023;48.274;7.794;2022-09-09T06:06:26;17.40;99.90
21722;DHT22;11023;48.274;7.794;2022-09-09T06:08:56;17.40;99.90
21722;DHT22;11023;48.274;7.794;2022-09-09T06:11:30;17.40;99.90
21722;DHT22;11023;48.274;7.794;2022-09-09T06:14:00;17.50;99.90
21722;DHT22;11023;48.274;7.794;2022-09-09T06:16:27;17.50;99.90
21722;DHT22;11023;48.274;7.794;2022-09-09T06:18:54;17.50;99.90
21722;DHT22;11023;48.274;7.794;2022-09-09T06:21:24;17.60;99.90
21722;DHT22;11023;48.274;7.794;2022-09-09T06:23:50;17.60;99.90
21722;DHT22;11023;48.274;7.794;2022-09-09T06:26:21;17.70;99.90
21722;DHT22;11023;48.274;7.794;2022-09-09T06:28:49;17.80;99.90
21722;DHT22;11023;48.274;7.794;2022-09-09T06:31:20;17.80;99.90
21722;DHT22;11023;48.274;7.794;2022-09-09T06:33:50;17.90;99.90
21722;DHT22;11023;48.274;7.794;2022-09-09T06:36:19;17.90;99.90
21722;DHT22;11023;48.274;7.794;2022-09-09T06:38:45;18.00;99.90
21722;DHT22;11023;48.274;7.794;2022-09-09T06:41:13;18.10;99.90
21722;DHT22;11023;48.274;7.794;2022-09-09T06:43:39;18.20;99.90
21722;DHT22;11023;48.274;7.794;2022-09-09T06:46:13;18.30;99.90
21722;DHT22;11023;48.274;7.794;2022-09-09T06:48:40;18.30;99.90
21722;DHT22;11023;48.274;7.794;2022-09-09T06:51:10;18.30;99.90
21722;DHT22;11023;48.274;7.794;2022-09-09T06:53:40;18.40;99.90
21722;DHT22;11023;48.274;7.794;2022-09-09T06:58:35;18.40;99.90
21722;DHT22;11023;48.274;7.794;2022-09-09T07:01:06;18.50;99.90
21722;DHT22;11023;48.274;7.794;2022-09-09T07:03:32;18.50;99.90
21722;DHT22;11023;48.274;7.794;2022-09-09T07:05:59;18.70;99.90
21722;DHT22;11023;48.274;7.794;2022-09-09T07:08:25;18.70;99.90
21722;DHT22;11023;48.274;7.794;2022-09-09T07:10:51;18.80;99.90
21722;DHT22;11023;48.274;7.794;2022-09-09T07:13:29;18.90;99.90
21722;DHT22;11023;48.274;7.794;2022-09-09T07:15:54;18.80;99.90
21722;DHT22;11023;48.274;7.794;2022-09-09T07:18:20;18.90;99.90
21722;DHT22;11023;48.274;7.794;2022-09-09T07:20:55;18.80;99.90
21722;DHT22;11023;48.274;7.794;2022-09-09T07:23:22;18.80;99.90
21722;DHT22;11023;48.274;7.794;2022-09-09T07:25:48;18.80;99.90
21722;DHT22;11023;48.274;7.794;2022-09-09T07:28:14;18.80;99.90
21722;DHT22;11023;48.274;7.794;2022-09-09T07:30:40;18.80;99.90
21722;DHT22;11023;48.274;7.794;2022-09-09T07:33:06;18.80;99.90
21722;DHT22;11023;48.274;7.794;2022-09-09T07:35:32;18.90;99.90
21722;DHT22;11023;48.274;7.794;2022-09-09T07:38:00;18.80;99.90
21722;DHT22;11023;48.274;7.794;2022-09-09T07:40:26;18.80;99.90
21722;DHT22;11023;48.274;7.794;2022-09-09T07:42:52;18.90;99.90
21722;DHT22;11023;48.274;7.794;2022-09-09T07:45:19;18.90;99.90
21722;DHT22;11023;48.274;7.794;2022-09-09T07:47:44;19.00;99.90
21722;DHT22;11023;48.274;7.794;2022-09-09T07:50:10;19.00;99.90
21722;DHT22;11023;48.274;7.794;2022-09-09T07:52:37;19.10;99.90
21722;DHT22;11023;48.274;7.794;2022-09-09T07:55:02;19.20;99.90
21722;DHT22;11023;48.274;7.794;2022-09-09T07:57:30;19.30;99.90
21722;DHT22;11023;48.274;7.794;2022-09-09T07:59:56;19.40;99.90
21722;DHT22;11023;48.274;7.794;2022-09-09T08:02:23;19.50;99.90
21722;DHT22;11023;48.274;7.794;2022-09-09T08:04:49;19.60;99.90
21722;DHT22;11023;48.274;7.794;2022-09-09T08:07:14;19.80;99.90
21722;DHT22;11023;48.274;7.794;2022-09-09T08:09:41;19.90;99.90
21722;DHT22;11023;48.274;7.794;2022-09-09T08:12:07;20.00;99.90
21722;DHT22;11023;48.274;7.794;2022-09-09T08:14:34;20.10;99.90
21722;DHT22;11023;48.274;7.794;2022-09-09T08:17:00;20.30;99.90
21722;DHT22;11023;48.274;7.794;2022-09-09T08:19:26;20.40;99.90
21722;DHT22;11023;48.274;7.794;2022-09-09T08:21:54;20.50;99.90
21722;DHT22;11023;48.274;7.794;2022-09-09T08:24:20;20.60;99.90
21722;DHT22;11023;48.274;7.794;2022-09-09T08:26:47;20.70;99.90
21722;DHT22;11023;48.274;7.794;2022-09-09T08:29:15;20.80;99.90
21722;DHT22;11023;48.274;7.794;2022-09-09T08:31:49;20.90;99.90
21722;DHT22;11023;48.274;7.794;2022-09-09T08:34:16;21.00;99.90
21722;DHT22;11023;48.274;7.794;2022-09-09T08:36:44;21.10;99.90
21722;DHT22;11023;48.274;7.794;2022-09-09T08:39:12;21.30;99.90
21722;DHT22;11023;48.274;7.794;2022-09-09T08:50:11;21.90;99.90
21722;DHT22;11023;48.274;7.794;2022-09-09T08:57:54;22.30;99.90
21722;DHT22;11023;48.274;7.794;2022-09-09T09:00:21;22.30;99.90
21722;DHT22;11023;48.274;7.794;2022-09-09T09:12:06;22.10;99.90
21722;DHT22;11023;48.274;7.794;2022-09-09T09:14:36;22.00;99.90
21722;DHT22;11023;48.274;7.794;2022-09-09T09:17:06;21.90;99.90
21722;DHT22;11023;48.274;7.794;2022-09-09T09:19:35;21.60;99.90
21722;DHT22;11023;48.274;7.794;2022-09-09T09:27:35;19.10;99.90
21722;DHT22;11023;48.274;7.794;2022-09-09T09:30:12;18.40;99.90
21722;DHT22;11023;48.274;7.794;2022-09-09T09:32:42;17.80;99.90
21722;DHT22;11023;48.274;7.794;2022-09-09T09:35:12;17.50;99.90
21722;DHT22;11023;48.274;7.794;2022-09-09T09:37:40;17.30;99.90
21722;DHT22;11023;48.274;7.794;2022-09-09T09:40:14;17.30;99.90
21722;DHT22;11023;48.274;7.794;2022-09-09T09:42:58;17.30;99.90
21722;DHT22;11023;48.274;7.794;2022-09-09T09:45:43;17.50;99.90
21722;DHT22;11023;48.274;7.794;2022-09-09T09:48:13;17.40;99.90
21722;DHT22;11023;48.274;7.794;2022-09-09T09:50:51;17.40;99.90
21722;DHT22;11023;48.274;7.794;2022-09-09T09:53:22;17.50;99.90
21722;DHT22;11023;48.274;7.794;2022-09-09T09:56:10;17.70;99.90
21722;DHT22;11023;48.274;7.794;2022-09-09T10:01:28;17.90;99.90
21722;DHT22;11023;48.274;7.794;2022-09-09T10:04:02;18.10;99.90
21722;DHT22;11023;48.274;7.794;2022-09-09T10:06:34;18.20;99.90
21722;DHT22;11023;48.274;7.794;2022-09-09T10:09:02;18.30;99.90
21722;DHT22;11023;48.274;7.794;2022-09-09T10:11:49;18.40;99.90
21722;DHT22;11023;48.274;7.794;2022-09-09T10:14:21;18.40;99.90
21722;DHT22;11023;48.274;7.794;2022-09-09T10:19:33;18.60;99.90
21722;DHT22;11023;48.274;7.794;2022-09-09T10:22:25;18.90;99.90
21722;DHT22;11023;48.274;7.794;2022-09-09T10:27:52;19.20;99.90
21722;DHT22;11023;48.274;7.794;2022-09-09T10:30:28;19.50;99.90
21722;DHT22;11023;48.274;7.794;2022-09-09T10:36:27;19.90;99.90
21722;DHT22;11023;48.274;7.794;2022-09-09T10:38:48;20.20;99.90
21722;DHT22;11023;48.274;7.794;2022-09-09T10:41:19;20.50;99.90
21722;DHT22;11023;48.274;7.794;2022-09-09T10:52:17;20.80;99.90
21722;DHT22;11023;48.274;7.794;2022-09-09T10:55:10;20.90;99.90
21722;DHT22;11023;48.274;7.794;2022-09-09T10:57:42;20.90;99.90
21722;DHT22;11023;48.274;7.794;2022-09-09T11:00:47;21.00;99.90
21722;DHT22;11023;48.274;7.794;2022-09-09T11:03:28;21.20;99.90
21722;DHT22;11023;48.274;7.794;2022-09-09T11:06:16;21.30;99.90
21722;DHT22;11023;48.274;7.794;2022-09-09T11:08:45;21.40;99.90
21722;DHT22;11023;48.274;7.794;2022-09-09T11:11:22;21.60;99.90
21722;DHT22;11023;48.274;7.794;2022-09-09T11:16:40;22.20;99.90
21722;DHT22;11023;48.274;7.794;2022-09-09T11:19:19;22.30;99.90
21722;DHT22;11023;48.274;7.794;2022-09-09T11:21:49;22.30;99.90
21722;DHT22;11023;48.274;7.794;2022-09-09T11:24:35;22.40;99.90
21722;DHT22;11023;48.274;7.794;2022-09-09T11:27:19;22.60;99.90
21722;DHT22;11023;48.274;7.794;2022-09-09T11:40:33;23.20;99.90
21722;DHT22;11023;48.274;7.794;2022-09-09T11:43:21;23.20;99.90
21722;DHT22;11023;48.274;7.794;2022-09-09T11:45:57;23.10;99.90
21722;DHT22;11023;48.274;7.794;2022-09-09T11:51:04;23.30;99.90
21722;DHT22;11023;48.274;7.794;2022-09-09T11:56:45;23.50;99.90
21722;DHT22;11023;48.274;7.794;2022-09-09T11:59:31;23.60;99.90
21722;DHT22;11023;48.274;7.794;2022-09-09T12:01:59;23.70;99.90
21722;DHT22;11023;48.274;7.794;2022-09-09T12:04:34;23.50;99.90
21722;DHT22;11023;48.274;7.794;2022-09-09T12:07:35;23.50;99.90
21722;DHT22;11023;48.274;7.794;2022-09-09T12:10:23;23.40;99.90
21722;DHT22;11023;48.274;7.794;2022-09-09T12:12:51;23.30;99.90
21722;DHT22;11023;48.274;7.794;2022-09-09T12:15:26;23.30;99.90
21722;DHT22;11023;48.274;7.794;2022-09-09T12:17:56;23.20;99.90
21722;DHT22;11023;48.274;7.794;2022-09-09T12:20:30;23.10;99.90
21722;DHT22;11023;48.274;7.794;2022-09-09T12:23:21;23.00;99.90
21722;DHT22;11023;48.274;7.794;2022-09-09T12:32:30;22.90;99.90
21722;DHT22;11023;48.274;7.794;2022-09-09T12:37:50;23.40;99.90
21722;DHT22;11023;48.274;7.794;2022-09-09T12:40:24;23.60;99.90
21722;DHT22;11023;48.274;7.794;2022-09-09T12:42:51;23.70;99.90
21722;DHT22;11023;48.274;7.794;2022-09-09T12:45:18;23.80;99.90
21722;DHT22;11023;48.274;7.794;2022-09-09T12:50:25;23.80;99.90
21722;DHT22;11023;48.274;7.794;2022-09-09T12:53:03;23.80;99.90
21722;DHT22;11023;48.274;7.794;2022-09-09T12:55:34;23.90;99.90
21722;DHT22;11023;48.274;7.794;2022-09-09T12:58:02;23.90;99.90
21722;DHT22;11023;48.274;7.794;2022-09-09T13:00:31;24.00;99.90
21722;DHT22;11023;48.274;7.794;2022-09-09T13:02:59;24.20;99.90
21722;DHT22;11023;48.274;7.794;2022-09-09T13:05:27;24.40;99.90
21722;DHT22;11023;48.274;7.794;2022-09-09T13:08:19;24.60;99.90
21722;DHT22;11023;48.274;7.794;2022-09-09T13:10:57;24.80;99.90
21722;DHT22;11023;48.274;7.794;2022-09-09T13:13:37;25.00;99.90
21722;DHT22;11023;48.274;7.794;2022-09-09T13:16:05;25.20;99.90
21722;DHT22;11023;48.274;7.794;2022-09-09T13:18:39;25.40;99.90
21722;DHT22;11023;48.274;7.794;2022-09-09T13:21:05;25.60;99.90
21722;DHT22;11023;48.274;7.794;2022-09-09T13:23:36;25.60;99.90
21722;DHT22;11023;48.274;7.794;2022-09-09T13:26:05;25.70;99.90
21722;DHT22;11023;48.274;7.794;2022-09-09T13:28:33;25.70;99.90
21722;DHT22;11023;48.274;7.794;2022-09-09T13:31:04;25.50;99.90
21722;DHT22;11023;48.274;7.794;2022-09-09T13:33:36;25.30;99.90
21722;DHT22;11023;48.274;7.794;2022-09-09T13:36:08;25.10;99.90
21722;DHT22;11023;48.274;7.794;2022-09-09T13:41:21;25.20;99.90
21722;DHT22;11023;48.274;7.794;2022-09-09T13:43:49;25.40;99.90
21722;DHT22;11023;48.274;7.794;2022-09-09T13:46:37;25.40;99.90
21722;DHT22;11023;48.274;7.794;2022-09-09T13:51:37;25.00;99.90
21722;DHT22;11023;48.274;7.794;2022-09-09T13:54:04;24.90;99.90
21722;DHT22;11023;48.274;7.794;2022-09-09T13:56:34;24.90;99.90
21722;DHT22;11023;48.274;7.794;2022-09-09T13:59:01;25.10;99.90
21722;DHT22;11023;48.274;7.794;2022-09-09T14:01:27;25.30;99.90
21722;DHT22;11023;48.274;7.794;2022-09-09T14:03:53;25.60;99.90
21722;DHT22;11023;48.274;7.794;2022-09-09T14:06:19;25.80;99.90
21722;DHT22;11023;48.274;7.794;2022-09-09T14:08:50;25.90;99.90
21722;DHT22;11023;48.274;7.794;2022-09-09T14:11:17;26.00;99.90
21722;DHT22;11023;48.274;7.794;2022-09-09T14:13:43;26.20;99.90
21722;DHT22;11023;48.274;7.794;2022-09-09T14:16:09;26.20;99.90
21722;DHT22;11023;48.274;7.794;2022-09-09T14:18:35;26.10;99.90
21722;DHT22;11023;48.274;7.794;2022-09-09T14:21:01;26.00;99.90
21722;DHT22;11023;48.274;7.794;2022-09-09T14:23:28;26.10;99.90
21722;DHT22;11023;48.274;7.794;2022-09-09T14:25:55;25.90;99.90
21722;DHT22;11023;48.274;7.794;2022-09-09T14:28:21;25.90;99.90
21722;DHT22;11023;48.274;7.794;2022-09-09T14:30:47;26.00;99.90
21722;DHT22;11023;48.274;7.794;2022-09-09T14:33:15;25.90;99.90
21722;DHT22;11023;48.274;7.794;2022-09-09T14:35:41;25.70;99.90
21722;DHT22;11023;48.274;7.794;2022-09-09T14:38:08;25.50;99.90
21722;DHT22;11023;48.274;7.794;2022-09-09T14:40:37;25.00;99.90
21722;DHT22;11023;48.274;7.794;2022-09-09T14:43:04;24.60;99.90
21722;DHT22;11023;48.274;7.794;2022-09-09T14:45:31;24.40;99.90
21722;DHT22;11023;48.274;7.794;2022-09-09T14:47:57;24.20;99.90
21722;DHT22;11023;48.274;7.794;2022-09-09T14:50:23;24.10;99.90
21722;DHT22;11023;48.274;7.794;2022-09-09T14:52:49;24.00;99.90
21722;DHT22;11023;48.274;7.794;2022-09-09T14:55:16;24.10;99.90
21722;DHT22;11023;48.274;7.794;2022-09-09T14:57:42;24.20;99.90
21722;DHT22;11023;48.274;7.794;2022-09-09T15:00:09;24.30;99.90
21722;DHT22;11023;48.274;7.794;2022-09-09T15:02:35;24.20;99.90
21722;DHT22;11023;48.274;7.794;2022-09-09T15:05:01;24.10;99.90
21722;DHT22;11023;48.274;7.794;2022-09-09T15:07:26;24.00;99.90
21722;DHT22;11023;48.274;7.794;2022-09-09T15:09:54;24.00;99.90
21722;DHT22;11023;48.274;7.794;2022-09-09T15:12:20;24.20;99.90
21722;DHT22;11023;48.274;7.794;2022-09-09T15:14:46;24.40;99.90
21722;DHT22;11023;48.274;7.794;2022-09-09T15:17:12;24.50;99.90
21722;DHT22;11023;48.274;7.794;2022-09-09T15:19:38;24.50;99.90
21722;DHT22;11023;48.274;7.794;2022-09-09T15:22:05;24.50;99.90
21722;DHT22;11023;48.274;7.794;2022-09-09T15:24:32;24.30;99.90
21722;DHT22;11023;48.274;7.794;2022-09-09T15:26:58;24.20;99.90
21722;DHT22;11023;48.274;7.794;2022-09-09T15:29:24;24.10;99.90
21722;DHT22;11023;48.274;7.794;2022-09-09T15:31:50;24.20;99.90
21722;DHT22;11023;48.274;7.794;2022-09-09T15:34:16;24.10;99.90
21722;DHT22;11023;48.274;7.794;2022-09-09T15:36:43;24.20;99.90
21722;DHT22;11023;48.274;7.794;2022-09-09T15:39:11;24.30;99.90
21722;DHT22;11023;48.274;7.794;2022-09-09T15:41:41;24.20;99.90
21722;DHT22;11023;48.274;7.794;2022-09-09T15:44:10;24.10;99.90
21722;DHT22;11023;48.274;7.794;2022-09-09T15:49:11;24.00;99.90
21722;DHT22;11023;48.274;7.794;2022-09-09T15:51:42;23.80;99.90
21722;DHT22;11023;48.274;7.794;2022-09-09T15:54:11;23.90;99.90
21722;DHT22;11023;48.274;7.794;2022-09-09T15:56:37;23.80;99.90
21722;DHT22;11023;48.274;7.794;2022-09-09T15:59:03;23.70;99.90
21722;DHT22;11023;48.274;7.794;2022-09-09T16:01:29;23.60;99.90
21722;DHT22;11023;48.274;7.794;2022-09-09T16:03:57;23.50;99.90
21722;DHT22;11023;48.274;7.794;2022-09-09T16:06:24;23.30;99.90
21722;DHT22;11023;48.274;7.794;2022-09-09T16:08:52;23.20;99.90
21722;DHT22;11023;48.274;7.794;2022-09-09T16:11:32;23.00;99.90
21722;DHT22;11023;48.274;7.794;2022-09-09T16:13:59;22.90;99.90
21722;DHT22;11023;48.274;7.794;2022-09-09T16:16:27;22.90;99.90
21722;DHT22;11023;48.274;7.794;2022-09-09T16:18:57;22.90;99.90
21722;DHT22;11023;48.274;7.794;2022-09-09T16:23:58;22.70;99.90
21722;DHT22;11023;48.274;7.794;2022-09-09T16:26:25;22.60;99.90
21722;DHT22;11023;48.274;7.794;2022-09-09T16:28:51;22.70;99.90
21722;DHT22;11023;48.274;7.794;2022-09-09T16:31:21;22.50;99.90
21722;DHT22;11023;48.274;7.794;2022-09-09T16:33:47;22.40;99.90
21722;DHT22;11023;48.274;7.794;2022-09-09T16:36:19;22.40;99.90
21722;DHT22;11023;48.274;7.794;2022-09-09T16:38:45;22.10;99.90
21722;DHT22;11023;48.274;7.794;2022-09-09T16:41:13;22.00;99.90
21722;DHT22;11023;48.274;7.794;2022-09-09T16:43:40;21.90;99.90
21722;DHT22;11023;48.274;7.794;2022-09-09T16:46:12;21.70;99.90
21722;DHT22;11023;48.274;7.794;2022-09-09T16:48:39;21.60;99.90
21722;DHT22;11023;48.274;7.794;2022-09-09T16:51:06;21.50;99.90
21722;DHT22;11023;48.274;7.794;2022-09-09T16:53:33;21.40;99.90
21722;DHT22;11023;48.274;7.794;2022-09-09T16:56:05;21.30;99.90
21722;DHT22;11023;48.274;7.794;2022-09-09T16:58:31;21.20;99.90
21722;DHT22;11023;48.274;7.794;2022-09-09T17:01:01;21.20;99.90
21722;DHT22;11023;48.274;7.794;2022-09-09T17:03:31;21.10;99.90
21722;DHT22;11023;48.274;7.794;2022-09-09T17:05:57;21.20;99.90
21722;DHT22;11023;48.274;7.794;2022-09-09T17:08:24;21.10;99.90
21722;DHT22;11023;48.274;7.794;2022-09-09T17:10:50;21.10;99.90
21722;DHT22;11023;48.274;7.794;2022-09-09T17:13:16;21.00;99.90
21722;DHT22;11023;48.274;7.794;2022-09-09T17:15:45;21.00;99.90
21722;DHT22;11023;48.274;7.794;2022-09-09T17:18:16;21.00;99.90
21722;DHT22;11023;48.274;7.794;2022-09-09T17:20:43;20.90;99.90
21722;DHT22;11023;48.274;7.794;2022-09-09T17:23:10;20.90;99.90
21722;DHT22;11023;48.274;7.794;2022-09-09T17:25:36;20.80;99.90
21722;DHT22;11023;48.274;7.794;2022-09-09T17:28:03;20.70;99.90
21722;DHT22;11023;48.274;7.794;2022-09-09T17:30:39;20.60;99.90
21722;DHT22;11023;48.274;7.794;2022-09-09T17:33:05;20.60;99.90
21722;DHT22;11023;48.274;7.794;2022-09-09T17:35:32;20.50;99.90
21722;DHT22;11023;48.274;7.794;2022-09-09T17:37:58;20.50;99.90
21722;DHT22;11023;48.274;7.794;2022-09-09T17:40:24;20.50;99.90
21722;DHT22;11023;48.274;7.794;2022-09-09T17:42:53;20.40;99.90
21722;DHT22;11023;48.274;7.794;2022-09-09T17:45:19;20.40;99.90
21722;DHT22;11023;48.274;7.794;2022-09-09T17:47:45;20.30;99.90
21722;DHT22;11023;48.274;7.794;2022-09-09T17:50:11;20.30;99.90